Time;durP1;ratioP1;P1;durP2;ratioP2;P2;SDS_P1;SDS_P2;PMS_P1;PMS_P2;Temp;Humidity;BMP_temperature;BMP_pressure;BME280_temperature;BME280_humidity;BME280_pressure;Samples;Min_cycle;Max_cycle;Signal;HPM_P1;HPM_P2
2023/11/10 00:01:48;;;;;;;1.20;1.20;;;8.70;99.90;;;;;;5125424;27;20256;-88
2023/11/10 00:04:14;;;;;;;0.30;0.20;;;8.70;99.90;;;;;;5110023;28;20725;-88
2023/11/10 00:06:40;;;;;;;0.30;0.20;;;8.70;99.90;;;;;;5124627;27;20956;-80
2023/11/10 00:09:07;;;;;;;0.30;0.20;;;8.70;99.90;;;;;;5125201;27;20195;-87
2023/11/10 00:11:33;;;;;;;0.30;0.20;;;8.70;99.90;;;;;;5126004;27;20218;-79
2023/11/10 00:13:59;;;;;;;0.30;0.20;;;8.70;99.90;;;;;;5110730;28;20227;-89
2023/11/10 00:16:25;;;;;;;0.30;0.20;;;8.70;99.90;;;;;;5110772;28;20644;-79
2023/11/10 00:18:56;;;;;;;0.30;0.20;;;8.70;99.90;;;;;;5127691;27;20601;-79
2023/11/10 00:21:27;;;;;;;0.30;0.20;;;8.60;99.90;;;;;;5125763;27;20188;-79
2023/11/10 00:23:52;;;;;;;0.30;0.20;;;8.60;99.90;;;;;;5125228;27;20261;-78
2023/11/10 00:26:22;;;;;;;0.30;0.20;;;8.60;99.90;;;;;;5115907;28;20172;-78
2023/11/10 00:28:49;;;;;;;1.58;1.48;;;8.60;99.90;;;;;;5128422;27;20204;-87
2023/11/10 00:31:15;;;;;;;0.30;0.20;;;8.60;99.90;;;;;;5112519;28;20178;-79
2023/11/10 00:33:40;;;;;;;0.30;0.20;;;8.50;99.90;;;;;;5124698;27;20192;-79
2023/11/10 00:36:06;;;;;;;0.30;0.20;;;8.50;99.90;;;;;;5109248;28;20172;-79
2023/11/10 00:38:32;;;;;;;0.30;0.20;;;8.50;99.90;;;;;;5109306;28;20206;-88
2023/11/10 00:40:58;;;;;;;0.33;0.33;;;8.50;99.90;;;;;;5124325;27;20215;-79
2023/11/10 00:43:24;;;;;;;0.30;0.20;;;8.50;99.90;;;;;;5109289;28;20202;-88
2023/11/10 00:45:54;;;;;;;0.30;0.20;;;8.50;99.90;;;;;;5124598;27;20175;-86
2023/11/10 00:48:19;;;;;;;0.30;0.20;;;8.50;99.90;;;;;;5125406;27;20215;-86
2023/11/10 00:50:45;;;;;;;0.30;0.20;;;8.50;99.90;;;;;;5125605;27;20218;-79
2023/11/10 00:53:11;;;;;;;0.30;0.20;;;8.40;99.90;;;;;;5124089;27;20731;-78
2023/11/10 00:55:37;;;;;;;0.30;0.20;;;8.40;99.90;;;;;;5108606;28;20400;-85
2023/11/10 00:58:03;;;;;;;0.30;0.20;;;8.40;99.90;;;;;;5108620;28;20199;-78
2023/11/10 01:00:29;;;;;;;0.30;0.20;;;8.30;99.90;;;;;;5124178;27;20302;-86
2023/11/10 01:02:55;;;;;;;0.30;0.20;;;8.30;99.90;;;;;;5108195;28;20259;-79
2023/11/10 01:05:21;;;;;;;0.30;0.20;;;8.30;99.90;;;;;;5112038;28;20412;-79
2023/11/10 01:07:49;;;;;;;0.30;0.20;;;8.30;99.90;;;;;;5124110;27;20183;-88
2023/11/10 01:10:15;;;;;;;0.70;0.70;;;8.20;99.90;;;;;;5124002;27;20458;-84
2023/11/10 01:12:41;;;;;;;0.30;0.20;;;8.30;99.90;;;;;;5123969;27;20286;-87
2023/11/10 01:15:08;;;;;;;0.30;0.20;;;8.30;99.90;;;;;;5124228;27;20642;-87
2023/11/10 01:17:36;;;;;;;0.30;0.20;;;8.30;99.90;;;;;;5108284;28;20171;-79
2023/11/10 01:20:02;;;;;;;0.30;0.20;;;8.30;99.90;;;;;;5124027;27;20207;-87
2023/11/10 01:22:28;;;;;;;0.30;0.20;;;8.30;99.90;;;;;;5108400;28;20501;-78
2023/11/10 01:24:53;;;;;;;0.30;0.20;;;8.40;99.90;;;;;;5108265;28;20424;-79
2023/11/10 01:27:19;;;;;;;0.30;0.20;;;8.40;99.90;;;;;;5108249;28;20403;-79
2023/11/10 01:29:48;;;;;;;0.30;0.20;;;8.40;99.90;;;;;;5123916;27;20252;-87
2023/11/10 01:32:13;;;;;;;0.30;0.20;;;8.40;99.90;;;;;;5123579;27;20187;-78
2023/11/10 01:34:39;;;;;;;0.30;0.20;;;8.50;99.90;;;;;;5123961;27;20210;-79
2023/11/10 01:37:06;;;;;;;0.30;0.20;;;8.50;99.90;;;;;;5123881;27;20560;-85
2023/11/10 01:39:32;;;;;;;0.30;0.20;;;8.50;99.90;;;;;;5111863;28;20459;-87
2023/11/10 01:41:58;;;;;;;0.30;0.20;;;8.50;99.90;;;;;;5129116;27;20331;-87
2023/11/10 01:44:24;;;;;;;0.30;0.20;;;8.50;99.90;;;;;;5124752;27;20207;-79
2023/11/10 01:46:51;;;;;;;0.30;0.20;;;8.50;99.90;;;;;;5123616;27;20442;-78
2023/11/10 01:49:22;;;;;;;0.30;0.20;;;8.50;99.90;;;;;;5123657;27;20267;-87
2023/11/10 01:51:52;;;;;;;0.30;0.20;;;8.50;99.90;;;;;;5123218;27;20183;-88
2023/11/10 01:54:20;;;;;;;0.30;0.20;;;8.60;99.90;;;;;;5108143;28;20192;-87
2023/11/10 01:56:47;;;;;;;0.30;0.20;;;8.60;99.90;;;;;;5107398;28;20171;-78
2023/11/10 01:59:14;;;;;;;0.30;0.20;;;8.60;99.90;;;;;;5123350;27;20241;-86
2023/11/10 02:01:41;;;;;;;0.30;0.20;;;8.60;99.90;;;;;;5107257;28;20172;-88
2023/11/10 02:04:11;;;;;;;0.30;0.20;;;8.60;99.90;;;;;;5107784;28;20664;-78
2023/11/10 02:06:40;;;;;;;0.30;0.20;;;8.60;99.90;;;;;;5122059;27;20180;-86
2023/11/10 02:09:06;;;;;;;0.30;0.20;;;8.60;99.90;;;;;;5122162;27;20203;-80
2023/11/10 02:11:31;;;;;;;0.30;0.20;;;8.60;99.90;;;;;;5123039;27;20171;-78
2023/11/10 02:14:02;;;;;;;0.30;0.20;;;8.60;99.90;;;;;;5122642;27;20195;-79
2023/11/10 02:16:28;;;;;;;0.30;0.20;;;8.60;99.90;;;;;;5122850;27;20412;-78
2023/11/10 02:18:54;;;;;;;0.30;0.20;;;8.60;99.90;;;;;;5108147;28;20203;-88
2023/11/10 02:21:20;;;;;;;0.30;0.20;;;8.60;99.90;;;;;;5109348;28;20570;-86
2023/11/10 02:23:49;;;;;;;0.30;0.20;;;8.60;99.90;;;;;;5107022;28;20616;-79
2023/11/10 02:26:15;;;;;;;0.30;0.20;;;8.60;99.90;;;;;;5106934;28;20176;-77
2023/11/10 02:28:41;;;;;;;0.30;0.20;;;8.60;99.90;;;;;;5106907;28;20628;-86
2023/11/10 02:31:07;;;;;;;0.30;0.20;;;8.60;99.90;;;;;;5106587;27;20815;-84
2023/11/10 02:33:36;;;;;;;0.30;0.20;;;8.70;99.90;;;;;;5107804;28;20215;-78
2023/11/10 02:36:02;;;;;;;0.30;0.30;;;8.60;99.90;;;;;;5106751;28;20245;-78
2023/11/10 02:38:28;;;;;;;0.30;0.20;;;8.60;99.90;;;;;;5122632;27;20290;-86
2023/11/10 02:40:53;;;;;;;0.30;0.20;;;8.60;99.90;;;;;;5121956;27;20319;-78
2023/11/10 02:43:19;;;;;;;0.43;0.40;;;8.60;99.90;;;;;;5106705;28;20466;-78
2023/11/10 02:45:45;;;;;;;0.30;0.20;;;8.50;99.90;;;;;;5122343;27;20190;-82
2023/11/10 02:48:10;;;;;;;0.30;0.20;;;8.50;99.90;;;;;;5106482;28;20199;-78
2023/11/10 02:50:37;;;;;;;0.30;0.20;;;8.60;99.90;;;;;;5122057;27;20440;-85
2023/11/10 02:53:03;;;;;;;0.30;0.20;;;8.50;99.90;;;;;;5106112;28;20283;-87
2023/11/10 02:55:29;;;;;;;0.30;0.20;;;8.50;99.90;;;;;;5106758;28;20247;-85
2023/11/10 02:57:54;;;;;;;0.30;0.20;;;8.50;99.90;;;;;;5121898;27;20270;-87
2023/11/10 03:00:20;;;;;;;37.40;35.40;;;8.50;99.90;;;;;;5122499;27;20212;-80
2023/11/10 03:02:46;;;;;;;0.30;0.20;;;8.50;99.90;;;;;;5105732;28;20190;-86
2023/11/10 03:05:11;;;;;;;0.30;0.20;;;8.50;99.90;;;;;;5106753;28;20625;-85
2023/11/10 03:07:37;;;;;;;0.30;0.20;;;8.40;99.90;;;;;;5105847;28;20216;-86
2023/11/10 03:10:04;;;;;;;0.30;0.20;;;8.50;99.90;;;;;;5106359;28;20282;-78
2023/11/10 03:12:32;;;;;;;0.30;0.20;;;8.50;99.90;;;;;;5121170;27;20179;-78
2023/11/10 03:14:58;;;;;;;0.30;0.20;;;8.40;99.90;;;;;;5121787;27;20235;-78
2023/11/10 03:17:24;;;;;;;0.30;0.20;;;8.40;99.90;;;;;;5106817;28;20244;-87
2023/11/10 03:19:50;;;;;;;0.30;0.20;;;8.50;99.90;;;;;;5106262;28;20671;-79
2023/11/10 03:22:17;;;;;;;0.30;0.20;;;8.50;99.90;;;;;;5121778;27;20404;-86
2023/11/10 03:24:43;;;;;;;0.30;0.20;;;8.50;99.90;;;;;;5106231;28;20645;-87
2023/11/10 03:27:10;;;;;;;0.30;0.20;;;8.50;99.90;;;;;;5121666;28;20582;-86
2023/11/10 03:29:36;;;;;;;0.30;0.20;;;8.50;99.90;;;;;;5121511;28;20206;-87
2023/11/10 03:32:04;;;;;;;0.67;0.67;;;8.50;99.90;;;;;;5106169;28;20172;-85
2023/11/10 03:34:29;;;;;;;0.30;0.20;;;8.50;99.90;;;;;;5106497;28;20436;-88
2023/11/10 03:36:55;;;;;;;0.30;0.20;;;8.50;99.90;;;;;;5123157;28;20183;-86
2023/11/10 03:39:21;;;;;;;0.30;0.20;;;8.50;99.90;;;;;;5122013;28;20227;-78
2023/11/10 03:41:47;;;;;;;0.30;0.20;;;8.50;99.90;;;;;;5121299;28;20176;-82
2023/11/10 03:44:13;;;;;;;0.30;0.20;;;8.50;99.90;;;;;;5106294;28;20354;-86
2023/11/10 03:46:39;;;;;;;0.30;0.27;;;8.40;99.90;;;;;;5121859;28;20422;-86
2023/11/10 03:49:04;;;;;;;0.30;0.20;;;8.50;99.90;;;;;;5121638;28;20223;-78
2023/11/10 03:51:30;;;;;;;0.30;0.20;;;8.50;99.90;;;;;;5105798;28;20207;-79
2023/11/10 03:53:56;;;;;;;0.30;0.20;;;8.50;99.90;;;;;;5106022;28;20599;-86
2023/11/10 03:56:22;;;;;;;0.30;0.20;;;8.50;99.90;;;;;;5106086;28;20472;-86
2023/11/10 03:58:49;;;;;;;0.30;0.20;;;8.50;99.90;;;;;;5106011;28;20738;-87
2023/11/10 04:01:15;;;;;;;0.30;0.20;;;8.50;99.90;;;;;;5105518;28;20475;-87
2023/11/10 04:03:42;;;;;;;0.30;0.20;;;8.50;99.90;;;;;;5106294;28;20683;-85
2023/11/10 04:06:08;;;;;;;0.30;0.20;;;8.50;99.90;;;;;;5121597;28;20724;-78
2023/11/10 04:08:34;;;;;;;0.30;0.20;;;8.60;99.90;;;;;;5123261;28;20199;-87
2023/11/10 04:11:00;;;;;;;0.30;0.20;;;8.60;99.90;;;;;;5105657;28;20606;-79
2023/11/10 04:13:26;;;;;;;0.30;0.20;;;8.60;99.90;;;;;;5120573;28;20199;-78
2023/11/10 04:15:52;;;;;;;0.30;0.20;;;8.60;99.90;;;;;;5120857;28;20318;-87
2023/11/10 04:18:17;;;;;;;0.30;0.20;;;8.60;99.90;;;;;;5121447;28;20227;-86
2023/11/10 04:20:44;;;;;;;0.30;0.20;;;8.60;99.90;;;;;;5105885;28;20212;-84
2023/11/10 04:23:10;;;;;;;1.48;1.38;;;8.60;99.90;;;;;;5121394;28;20209;-85
2023/11/10 04:25:36;;;;;;;0.30;0.20;;;8.60;99.90;;;;;;5105899;28;20229;-78
2023/11/10 04:28:02;;;;;;;0.50;0.50;;;8.60;99.90;;;;;;5105932;28;20656;-87
2023/11/10 04:30:28;;;;;;;0.30;0.20;;;8.70;99.90;;;;;;5111100;28;20183;-79
2023/11/10 04:32:57;;;;;;;0.30;0.20;;;8.70;99.90;;;;;;5124803;27;20255;-86
2023/11/10 04:35:23;;;;;;;0.30;0.20;;;8.70;99.90;;;;;;5109878;28;20404;-79
2023/11/10 04:37:50;;;;;;;0.30;0.30;;;8.80;99.90;;;;;;5124487;27;20663;-87
2023/11/10 04:40:17;;;;;;;0.30;0.20;;;8.80;99.90;;;;;;5109158;28;20242;-86
2023/11/10 04:42:44;;;;;;;0.30;0.20;;;8.90;99.90;;;;;;5124171;27;20236;-78
2023/11/10 04:45:10;;;;;;;0.30;0.20;;;8.90;99.90;;;;;;5124789;27;20204;-79
2023/11/10 04:47:36;;;;;;;0.30;0.20;;;8.90;99.90;;;;;;5109060;28;20530;-87
2023/11/10 04:50:02;;;;;;;0.30;0.20;;;8.80;99.90;;;;;;5124594;27;20728;-79
2023/11/10 04:52:29;;;;;;;0.30;0.20;;;8.80;99.90;;;;;;5124636;27;20570;-87
2023/11/10 04:54:54;;;;;;;0.30;0.20;;;8.80;99.90;;;;;;5108926;28;20199;-78
2023/11/10 04:57:20;;;;;;;0.30;0.20;;;8.70;99.90;;;;;;5109508;28;20168;-85
2023/11/10 04:59:47;;;;;;;0.30;0.20;;;8.70;99.90;;;;;;5108876;28;20246;-90
2023/11/10 05:02:13;;;;;;;0.30;0.20;;;8.60;99.90;;;;;;5109119;28;20180;-91
2023/11/10 05:04:39;;;;;;;0.30;0.20;;;8.50;99.90;;;;;;5109094;28;20434;-77
2023/11/10 05:07:08;;;;;;;0.40;0.40;;;8.50;99.90;;;;;;5124087;27;20179;-77
2023/11/10 05:09:34;;;;;;;0.30;0.20;;;8.50;99.90;;;;;;5124247;27;21000;-77
2023/11/10 05:12:00;;;;;;;0.30;0.20;;;8.40;99.90;;;;;;5107543;28;20168;-77
2023/11/10 05:14:26;;;;;;;0.30;0.20;;;8.40;99.90;;;;;;5123313;27;20224;-87
2023/11/10 05:16:51;;;;;;;0.30;0.20;;;8.40;99.90;;;;;;5107850;28;20242;-82
2023/11/10 05:19:17;;;;;;;0.30;0.20;;;8.30;99.90;;;;;;5123971;27;20568;-78
2023/11/10 05:21:43;;;;;;;0.40;0.40;;;8.30;99.90;;;;;;5123821;27;20585;-86
2023/11/10 05:24:12;;;;;;;0.30;0.20;;;8.30;99.90;;;;;;5123941;27;20207;-78
2023/11/10 05:26:38;;;;;;;0.30;0.20;;;8.30;99.90;;;;;;5107681;28;20217;-87
2023/11/10 05:29:04;;;;;;;0.30;0.20;;;8.30;99.90;;;;;;5123099;27;20203;-87
2023/11/10 05:31:29;;;;;;;0.30;0.20;;;8.30;99.90;;;;;;5106113;28;20180;-87
2023/11/10 05:33:56;;;;;;;0.30;0.20;;;8.30;99.90;;;;;;5099206;28;20207;-87
2023/11/10 05:36:24;;;;;;;0.30;0.20;;;8.30;99.90;;;;;;5101301;28;20195;-86
2023/11/10 05:38:50;;;;;;;0.30;0.20;;;8.30;99.90;;;;;;5125844;27;20325;-76
2023/11/10 05:41:16;;;;;;;0.30;0.20;;;8.40;99.90;;;;;;5097095;28;20735;-82
2023/11/10 05:43:41;;;;;;;0.30;0.20;;;8.40;99.90;;;;;;5103709;28;20276;-86
2023/11/10 05:46:07;;;;;;;0.40;0.20;;;8.40;99.90;;;;;;5098050;28;20308;-76
2023/11/10 05:48:33;;;;;;;0.30;0.20;;;8.40;99.90;;;;;;5105596;28;20230;-86
2023/11/10 05:51:03;;;;;;;0.30;0.20;;;8.40;99.90;;;;;;5084981;28;20264;-77
2023/11/10 05:53:30;;;;;;;0.30;0.20;;;8.40;99.90;;;;;;5086023;28;20208;-86
2023/11/10 05:55:56;;;;;;;0.30;0.20;;;8.40;99.90;;;;;;5105263;28;20228;-87
2023/11/10 05:58:22;;;;;;;0.40;0.40;;;8.50;99.90;;;;;;5104550;28;20261;-78
2023/11/10 06:00:47;;;;;;;0.30;0.20;;;8.50;99.90;;;;;;5100327;28;20684;-76
2023/11/10 06:03:15;;;;;;;0.30;0.20;;;8.50;99.90;;;;;;5105079;28;20208;-87
2023/11/10 06:05:41;;;;;;;0.30;0.20;;;8.50;99.90;;;;;;5105559;28;20577;-86
2023/11/10 06:08:06;;;;;;;0.30;0.20;;;8.50;99.90;;;;;;5105221;28;20218;-85
2023/11/10 06:10:32;;;;;;;0.30;0.20;;;8.50;99.90;;;;;;5107314;28;20175;-83
2023/11/10 06:12:57;;;;;;;0.30;0.20;;;8.50;99.90;;;;;;5116809;27;20307;-76
2023/11/10 06:15:23;;;;;;;0.30;0.20;;;8.40;99.90;;;;;;5101056;28;20235;-86
2023/11/10 06:17:49;;;;;;;0.30;0.20;;;8.40;99.90;;;;;;5104866;28;20179;-76
2023/11/10 06:20:14;;;;;;;0.30;0.30;;;8.50;99.90;;;;;;5104728;28;20226;-84
2023/11/10 06:22:41;;;;;;;0.30;0.20;;;8.40;99.90;;;;;;5103329;28;20597;-77
2023/11/10 06:25:06;;;;;;;0.30;0.20;;;8.40;99.90;;;;;;5105208;28;20604;-77
2023/11/10 06:27:34;;;;;;;0.30;0.20;;;8.40;99.90;;;;;;5104462;28;20213;-84
2023/11/10 06:30:00;;;;;;;0.30;0.20;;;8.40;99.90;;;;;;5106254;28;20701;-76
2023/11/10 06:32:26;;;;;;;0.30;0.20;;;8.50;99.90;;;;;;5105592;28;20175;-76
2023/11/10 06:34:51;;;;;;;0.30;0.20;;;8.50;99.90;;;;;;5105185;28;20452;-87
2023/11/10 06:37:18;;;;;;;0.30;0.20;;;8.50;99.90;;;;;;5108150;27;20401;-77
2023/11/10 06:39:44;;;;;;;0.30;0.20;;;8.50;99.90;;;;;;5101544;28;20880;-76
2023/11/10 06:42:09;;;;;;;0.30;0.20;;;8.50;99.90;;;;;;5103188;28;20292;-86
2023/11/10 06:44:37;;;;;;;0.30;0.30;;;8.50;99.90;;;;;;5113422;27;20460;-86
2023/11/10 06:47:03;;;;;;;0.30;0.20;;;8.50;99.90;;;;;;5096492;28;20436;-87
2023/11/10 06:49:29;;;;;;;0.30;0.20;;;8.50;99.90;;;;;;5104026;28;20294;-76
2023/11/10 06:51:55;;;;;;;0.30;0.20;;;8.50;99.90;;;;;;5113931;27;20457;-87
2023/11/10 06:54:21;;;;;;;0.33;0.30;;;8.50;99.90;;;;;;5101264;28;20668;-77
2023/11/10 06:56:47;;;;;;;0.50;0.47;;;8.60;99.90;;;;;;5103219;28;20473;-82
2023/11/10 06:59:12;;;;;;;0.30;0.20;;;8.60;99.90;;;;;;5108567;28;20290;-86
2023/11/10 07:01:38;;;;;;;0.30;0.20;;;8.60;99.90;;;;;;5105634;28;20784;-77
2023/11/10 07:04:04;;;;;;;0.30;0.20;;;8.70;99.90;;;;;;5111521;27;20206;-87
2023/11/10 07:06:31;;;;;;;0.30;0.20;;;8.70;99.90;;;;;;5099546;28;20640;-77
2023/11/10 07:08:57;;;;;;;0.30;0.20;;;8.80;99.90;;;;;;5112006;27;20512;-86
2023/11/10 07:11:22;;;;;;;0.30;0.20;;;8.80;99.90;;;;;;5096598;28;20180;-87
2023/11/10 07:13:49;;;;;;;0.30;0.20;;;8.80;99.90;;;;;;5093360;28;20539;-87
2023/11/10 07:16:16;;;;;;;0.30;0.20;;;8.90;99.90;;;;;;5085863;28;20326;-87
2023/11/10 07:18:42;;;;;;;0.30;0.20;;;8.90;99.90;;;;;;5092079;28;20502;-78
2023/11/10 07:21:07;;;;;;;0.30;0.20;;;9.00;99.90;;;;;;5092307;28;20215;-77
2023/11/10 07:23:33;;;;;;;0.30;0.20;;;9.10;99.90;;;;;;5102538;27;20336;-77
2023/11/10 07:25:59;;;;;;;0.30;0.20;;;9.10;99.90;;;;;;5100022;28;20720;-86
2023/11/10 07:28:25;;;;;;;0.30;0.20;;;9.10;99.90;;;;;;5094432;28;20470;-87
2023/11/10 07:30:51;;;;;;;0.30;0.20;;;9.20;99.90;;;;;;5093438;28;20176;-85
2023/11/10 07:33:17;;;;;;;8.80;8.43;;;9.20;99.90;;;;;;5113315;27;20202;-87
2023/11/10 07:35:42;;;;;;;0.30;0.20;;;9.30;99.90;;;;;;5106652;28;20191;-83
2023/11/10 07:38:08;;;;;;;0.30;0.20;;;9.30;99.90;;;;;;5091295;28;20210;-78
2023/11/10 07:40:34;;;;;;;0.30;0.20;;;9.40;99.90;;;;;;5099887;28;20219;-82
2023/11/10 07:43:00;;;;;;;0.30;0.20;;;9.40;99.90;;;;;;5101321;28;20306;-77
2023/11/10 07:45:28;;;;;;;0.30;0.20;;;9.50;99.90;;;;;;5118051;28;20191;-88
2023/11/10 07:47:54;;;;;;;0.40;0.40;;;9.50;99.90;;;;;;5102467;28;20171;-77
2023/11/10 07:50:20;;;;;;;0.30;0.20;;;9.60;99.90;;;;;;5100842;28;20471;-77
2023/11/10 07:52:46;;;;;;;0.30;0.20;;;9.60;99.90;;;;;;5099210;28;20278;-87
2023/11/10 07:55:13;;;;;;;0.30;0.20;;;9.60;99.90;;;;;;5104077;28;20172;-77
2023/11/10 07:57:39;;;;;;;0.30;0.20;;;9.70;99.90;;;;;;5116549;28;20187;-87
2023/11/10 08:00:06;;;;;;;0.30;0.20;;;9.80;99.90;;;;;;5104128;28;20216;-78
2023/11/10 08:02:33;;;;;;;0.30;0.20;;;9.80;99.90;;;;;;5104512;28;20428;-86
2023/11/10 08:04:59;;;;;;;0.30;0.20;;;9.90;99.90;;;;;;5108828;27;20204;-78
2023/11/10 08:07:25;;;;;;;0.30;0.20;;;9.90;99.90;;;;;;5102520;28;20180;-87
2023/11/10 08:09:51;;;;;;;0.30;0.20;;;9.90;99.90;;;;;;5107363;28;20223;-78
2023/11/10 08:12:17;;;;;;;1.40;1.30;;;9.90;99.90;;;;;;5106565;28;20671;-88
2023/11/10 08:14:43;;;;;;;0.30;0.20;;;10.00;99.90;;;;;;5110000;28;20422;-78
2023/11/10 08:17:08;;;;;;;0.30;0.30;;;10.00;99.90;;;;;;5104122;28;20176;-78
2023/11/10 08:19:34;;;;;;;0.30;0.20;;;10.00;99.90;;;;;;5120053;27;20206;-88
2023/11/10 08:22:00;;;;;;;3.07;2.97;;;10.10;99.90;;;;;;5106474;27;20178;-88
2023/11/10 08:24:26;;;;;;;1.25;1.25;;;10.10;99.90;;;;;;5108801;28;20458;-87
2023/11/10 08:26:55;;;;;;;0.30;0.30;;;10.20;99.90;;;;;;5107361;28;20435;-87
2023/11/10 08:29:20;;;;;;;0.30;0.20;;;10.20;99.90;;;;;;5105494;28;20192;-87
2023/11/10 08:31:48;;;;;;;0.30;0.30;;;10.20;99.90;;;;;;5114400;27;20722;-77
2023/11/10 08:34:13;;;;;;;0.30;0.20;;;10.30;99.90;;;;;;5096566;28;20220;-77
2023/11/10 08:36:40;;;;;;;0.30;0.20;;;10.30;99.90;;;;;;5095819;28;20669;-78
2023/11/10 08:39:06;;;;;;;0.40;0.40;;;10.30;99.90;;;;;;5124673;27;20668;-87
2023/11/10 08:41:32;;;;;;;0.30;0.20;;;10.40;99.90;;;;;;5099531;28;20275;-88
2023/11/10 08:43:58;;;;;;;0.30;0.20;;;10.50;99.90;;;;;;5098042;28;20653;-79
2023/11/10 08:46:24;;;;;;;0.30;0.20;;;10.50;99.90;;;;;;5096688;28;20233;-87
2023/11/10 08:48:50;;;;;;;0.40;0.30;;;10.60;99.90;;;;;;5093927;28;20555;-78
2023/11/10 08:51:16;;;;;;;0.30;0.30;;;10.60;99.90;;;;;;5101935;28;20191;-79
2023/11/10 08:53:45;;;;;;;0.30;0.20;;;10.70;99.90;;;;;;5092550;28;20199;-88
2023/11/10 08:56:14;;;;;;;0.30;0.20;;;10.80;99.90;;;;;;5101275;28;20176;-78
2023/11/10 08:58:39;;;;;;;0.30;0.20;;;10.80;99.90;;;;;;5093818;28;20654;-88
2023/11/10 09:01:06;;;;;;;0.40;0.30;;;10.90;99.90;;;;;;5100491;28;20390;-88
2023/11/10 09:03:31;;;;;;;0.30;0.20;;;10.90;99.90;;;;;;5102932;28;20624;-79
2023/11/10 09:05:58;;;;;;;0.30;0.30;;;11.00;99.90;;;;;;5101224;28;20304;-88
2023/11/10 09:08:24;;;;;;;0.30;0.20;;;11.00;99.90;;;;;;5120820;27;20239;-90
2023/11/10 09:10:50;;;;;;;0.30;0.20;;;11.10;99.90;;;;;;5104105;28;20180;-89
2023/11/10 09:13:15;;;;;;;0.30;0.20;;;11.20;99.90;;;;;;5118650;27;20203;-91
2023/11/10 09:15:41;;;;;;;0.50;0.50;;;11.30;99.90;;;;;;5099236;28;20433;-90
2023/11/10 09:18:07;;;;;;;0.30;0.20;;;11.30;99.90;;;;;;5101382;28;20191;-84
2023/11/10 09:20:33;;;;;;;0.30;0.20;;;11.30;99.90;;;;;;5095403;28;20215;-90
2023/11/10 09:23:01;;;;;;;0.30;0.20;;;11.40;99.90;;;;;;5118714;27;20211;-89
2023/11/10 09:25:27;;;;;;;0.30;0.20;;;11.40;99.90;;;;;;5115586;27;20184;-91
2023/11/10 09:27:56;;;;;;;0.30;0.20;;;11.50;99.90;;;;;;5095563;28;20173;-91
2023/11/10 09:30:24;;;;;;;0.30;0.20;;;11.50;99.90;;;;;;5097330;28;20691;-77
2023/11/10 09:32:51;;;;;;;0.30;0.20;;;11.50;99.90;;;;;;5093785;28;20188;-87
2023/11/10 09:35:17;;;;;;;0.30;0.20;;;11.50;99.90;;;;;;5098461;28;20169;-86
2023/11/10 09:37:46;;;;;;;0.30;0.20;;;11.60;99.90;;;;;;5096619;28;20246;-77
2023/11/10 09:40:13;;;;;;;0.30;0.20;;;11.60;99.90;;;;;;5088041;28;20218;-87
2023/11/10 09:42:42;;;;;;;0.30;0.20;;;11.60;99.90;;;;;;5083719;28;20805;-87
2023/11/10 09:45:08;;;;;;;0.40;0.40;;;11.60;99.90;;;;;;5080282;28;20187;-77
2023/11/10 09:47:34;;;;;;;0.30;0.30;;;11.60;99.90;;;;;;5086582;28;20572;-78
2023/11/10 09:50:06;;;;;;;0.30;0.20;;;11.70;99.90;;;;;;5099857;28;20692;-77
2023/11/10 09:52:34;;;;;;;0.30;0.20;;;11.70;99.90;;;;;;5100957;28;20913;-80
2023/11/10 09:55:00;;;;;;;0.30;0.20;;;11.70;99.90;;;;;;5107460;27;20219;-77
2023/11/10 09:57:28;;;;;;;0.30;0.20;;;11.70;99.90;;;;;;5097180;28;20168;-87
2023/11/10 09:59:56;;;;;;;0.30;0.20;;;11.70;99.90;;;;;;5090693;28;21015;-87
2023/11/10 10:02:22;;;;;;;0.30;0.30;;;11.60;99.90;;;;;;5099965;28;20242;-87
2023/11/10 10:04:49;;;;;;;0.30;0.20;;;11.70;99.90;;;;;;5102077;28;20596;-77
2023/11/10 10:07:15;;;;;;;0.30;0.20;;;11.70;99.90;;;;;;5103487;28;20275;-86
2023/11/10 10:09:42;;;;;;;0.30;0.20;;;11.80;99.90;;;;;;5100169;28;20703;-77
2023/11/10 10:12:08;;;;;;;0.30;0.20;;;11.80;99.90;;;;;;5100456;28;20283;-77
2023/11/10 10:14:35;;;;;;;0.30;0.20;;;11.90;99.90;;;;;;5096240;27;20890;-86
2023/11/10 10:17:01;;;;;;;0.30;0.20;;;11.90;99.90;;;;;;5100545;27;20199;-86
2023/11/10 10:19:28;;;;;;;2.53;2.43;;;11.80;99.90;;;;;;5101122;27;20376;-77
2023/11/10 10:21:54;;;;;;;0.30;0.20;;;11.90;99.90;;;;;;5098766;27;20591;-77
2023/11/10 10:24:21;;;;;;;0.30;0.20;;;11.80;99.90;;;;;;5112814;27;20202;-87
2023/11/10 10:26:48;;;;;;;0.30;0.20;;;12.00;99.90;;;;;;5102741;27;20199;-87
2023/11/10 10:29:14;;;;;;;0.30;0.20;;;12.00;99.90;;;;;;5120059;27;20218;-86
2023/11/10 10:31:40;;;;;;;0.30;0.20;;;12.00;99.90;;;;;;5102048;28;20488;-78
2023/11/10 10:34:07;;;;;;;0.30;0.20;;;12.10;99.90;;;;;;5102781;28;20210;-87
2023/11/10 10:36:38;;;;;;;0.30;0.20;;;12.10;99.90;;;;;;5102084;28;20712;-77
2023/11/10 10:39:10;;;;;;;0.30;0.20;;;12.10;99.90;;;;;;5117859;27;20212;-77
2023/11/10 10:41:38;;;;;;;0.30;0.20;;;12.10;99.90;;;;;;5104172;27;20236;-87
2023/11/10 10:44:04;;;;;;;0.30;0.20;;;12.20;99.90;;;;;;5077281;28;20204;-77
2023/11/10 10:46:34;;;;;;;0.30;0.20;;;12.20;99.90;;;;;;5080631;28;20401;-87
2023/11/10 10:49:01;;;;;;;0.30;0.20;;;12.30;99.90;;;;;;5078557;28;20314;-82
2023/11/10 10:51:37;;;;;;;0.30;0.20;;;12.30;99.90;;;;;;5086425;28;20184;-77
2023/11/10 10:54:05;;;;;;;0.30;0.20;;;12.40;99.90;;;;;;5096827;28;20443;-87
2023/11/10 10:56:34;;;;;;;0.30;0.20;;;12.40;99.90;;;;;;5098494;27;20468;-87
2023/11/10 10:59:00;;;;;;;0.30;0.20;;;12.40;99.90;;;;;;5100981;28;20448;-77
2023/11/10 11:01:27;;;;;;;0.30;0.20;;;12.40;99.90;;;;;;5097749;28;20894;-86
2023/11/10 11:04:01;;;;;;;0.30;0.20;;;12.40;99.90;;;;;;5110186;27;21027;-77
2023/11/10 11:06:58;;;;;;;0.97;0.97;;;12.50;99.90;;;;;;5099619;28;20427;-87
2023/11/10 11:10:06;;;;;;;0.60;0.60;;;12.50;99.90;;;;;;5099551;28;21104;-77
2023/11/10 11:12:54;;;;;;;0.30;0.20;;;12.50;99.90;;;;;;5091515;28;20497;-87
2023/11/10 11:15:51;;;;;;;0.30;0.20;;;12.60;99.90;;;;;;5097707;28;20828;-87
2023/11/10 11:18:54;;;;;;;0.30;0.20;;;12.60;99.90;;;;;;5097441;28;20195;-78
2023/11/10 11:21:21;;;;;;;0.30;0.20;;;12.60;99.90;;;;;;5096403;28;20489;-88
2023/11/10 11:23:51;;;;;;;0.30;0.20;;;12.60;99.90;;;;;;5093782;28;20807;-87
2023/11/10 11:26:16;;;;;;;0.30;0.20;;;12.70;99.90;;;;;;5100543;28;20427;-78
2023/11/10 11:28:42;;;;;;;31.30;13.03;;;12.70;99.90;;;;;;5107485;28;20461;-77
2023/11/10 11:31:10;;;;;;;1.37;1.37;;;12.70;99.90;;;;;;5097032;28;20436;-85
2023/11/10 11:33:52;;;;;;;0.30;0.20;;;12.80;99.90;;;;;;5093668;28;20200;-77
2023/11/10 11:36:22;;;;;;;0.30;0.20;;;12.80;99.90;;;;;;5094635;28;20477;-77
2023/11/10 11:38:48;;;;;;;0.30;0.20;;;12.80;99.90;;;;;;5097599;28;20795;-77
2023/11/10 11:41:18;;;;;;;0.30;0.27;;;12.80;99.90;;;;;;5101031;28;20520;-78
2023/11/10 11:43:57;;;;;;;0.30;0.27;;;12.80;99.90;;;;;;5110013;27;20517;-88
2023/11/10 11:46:33;;;;;;;0.30;0.20;;;12.90;99.90;;;;;;5101444;28;20456;-87
2023/11/10 11:49:01;;;;;;;0.30;0.20;;;12.90;99.90;;;;;;5094484;28;20480;-87
2023/11/10 11:51:30;;;;;;;0.30;0.20;;;12.90;99.90;;;;;;5088782;28;20847;-77
2023/11/10 11:53:58;;;;;;;0.30;0.20;;;12.90;99.90;;;;;;5099930;28;20825;-88
2023/11/10 11:56:24;;;;;;;0.30;0.20;;;12.90;99.90;;;;;;5096640;28;20407;-78
2023/11/10 11:58:51;;;;;;;0.30;0.30;;;12.90;99.90;;;;;;5093122;28;20227;-88
2023/11/10 12:01:17;;;;;;;0.30;0.20;;;12.90;99.90;;;;;;5095267;28;20628;-87
2023/11/10 12:03:43;;;;;;;0.30;0.20;;;13.00;99.90;;;;;;5095569;28;20489;-87
2023/11/10 12:06:09;;;;;;;4.73;4.00;;;13.00;99.90;;;;;;5093083;28;20840;-78
2023/11/10 12:08:35;;;;;;;0.30;0.20;;;13.00;99.90;;;;;;5094328;28;20590;-87
2023/11/10 12:11:02;;;;;;;0.30;0.20;;;13.00;99.90;;;;;;5095398;28;20238;-78
2023/11/10 12:13:28;;;;;;;0.30;0.20;;;13.00;99.90;;;;;;5097512;28;20398;-78
2023/11/10 12:15:55;;;;;;;0.30;0.20;;;13.00;99.90;;;;;;5098014;28;20545;-88
2023/11/10 12:18:25;;;;;;;0.40;0.20;;;13.00;99.90;;;;;;5096850;28;20204;-78
2023/11/10 12:20:51;;;;;;;0.30;0.30;;;13.10;99.90;;;;;;5098078;28;21024;-78
2023/11/10 12:23:16;;;;;;;0.30;0.20;;;13.10;99.90;;;;;;5094963;28;20444;-87
2023/11/10 12:25:44;;;;;;;1.07;1.07;;;13.10;99.90;;;;;;5095724;27;20180;-78
2023/11/10 12:28:11;;;;;;;0.50;0.50;;;13.20;99.90;;;;;;5093251;28;20203;-78
2023/11/10 12:30:37;;;;;;;0.30;0.20;;;13.20;99.90;;;;;;5098431;28;20633;-88
2023/11/10 12:33:03;;;;;;;0.30;0.20;;;13.20;99.90;;;;;;5095566;28;20514;-87
2023/11/10 12:35:28;;;;;;;0.83;0.83;;;13.20;99.90;;;;;;5098678;28;20955;-87
2023/11/10 12:37:54;;;;;;;0.30;0.20;;;13.20;99.90;;;;;;5092852;28;20443;-78
2023/11/10 12:40:22;;;;;;;0.30;0.20;;;13.30;99.90;;;;;;5095287;28;20216;-87
2023/11/10 12:42:48;;;;;;;0.93;0.93;;;13.30;99.90;;;;;;5095812;28;20447;-78
2023/11/10 12:45:16;;;;;;;1.17;1.17;;;13.30;99.90;;;;;;5093474;28;20433;-78
2023/11/10 12:47:48;;;;;;;0.30;0.20;;;13.30;99.90;;;;;;5091562;28;21273;-78
2023/11/10 12:50:21;;;;;;;0.30;0.20;;;13.30;99.90;;;;;;5108860;27;20478;-88
2023/11/10 12:52:51;;;;;;;0.30;0.30;;;13.30;99.90;;;;;;5104992;28;20454;-79